Moccasin, CA (95347)

9:44 AM PST on November 21, 2014 (GMT -0800)
Pine Mountain Lake | Change Station
CLOSE
Current Station
Personal Weather Station
Location: Groveland, CA
Elevation: 2664 ft
Nearby Weather Stations

Elev 2664 ft 37.84 °N, 120.19 °W | Updated 5 minutes ago

Partly Cloudy
Partly Cloudy
43.2 °F
Feels Like 43 °F
N
0.0
Wind Variable Wind from ENE
Gusts 0.0 mph

Today
High -- | Low -- °F
--% Chance of Precip.
Yesterday
High -- | Low -- °F
Precip. -- in
6:47 AM 4:46 PM
Waning Crescent, 1% visible
Pressure 30.08 in
Visibility 10.0 miles
Clouds Clear
Windchill 43 °F
Dew Point 43 °F
Humidity 98%
Rainfall 0.00 in
Snow Depth Not available.
UV 2 out of 12
Pollen .90 out of 12
Air Quality Not available.
Flu Activity Not available.
METAR KO22 211735Z AUTO 29004KT 10SM CLR 11/05 A3008 RMK AO1

More Conditions Fewer Conditions

Pressure 30.08 in
Visibility 10.0 miles
Clouds Clear
Windchill 43 °F
Dew Point 43 °F
Humidity 98%
Rainfall 0.00 in
Snow Depth Not available.
UV 2 out of 12
Pollen .90 out of 12
Air Quality Not available.
Flu Activity Not available.
METAR KO22 211735Z AUTO 29004KT 10SM CLR 11/05 A3008 RMK AO1

More Conditions Fewer Conditions

10-Day Weather Forecast

Almanac

Astronomy

Nov. 21, 2014 Rise Set
Actual Time
Civil Twilight
Nautical Twilight
Astronomical Twilight
Moon
Length of Visible Light
Length of Day
Tomorrow will be .
, % of the Moon is Illuminated

Today's Extremes

State Highs State Lows

Community

WunderPhotos

Upload Photos

1,772,693 photos uploaded!

WunderBlogs® & News

Nearby

Air Quality

  Air Quality AQ Index Pollutant
Not available.

Snow Depth

Station Depth Elevation

Earthquake Activity

City Distance Mag. Time & Date
Minimum magnitude displayed is 2.5.

Coastal Water Temperatures

Place Temperature

Nearby Weather Stations